createdAt,value
2019-03-12T00:00:02.283Z,97.77
2019-03-12T00:02:03.007Z,97.84
2019-03-12T00:03:03.038Z,98.86
2019-03-12T00:04:03.062Z,98.24
2019-03-12T00:05:03.113Z,98.99
2019-03-12T00:06:03.238Z,99.27
2019-03-12T00:07:02.935Z,99.30
2019-03-12T00:08:03.685Z,99.42
2019-03-12T00:09:03.475Z,99.32
2019-03-12T00:10:03.580Z,99.75
2019-03-12T00:11:04.094Z,99.39
2019-03-12T00:12:04.307Z,100.00
2019-03-12T00:13:04.120Z,100.00
2019-03-12T00:14:04.827Z,100.00
2019-03-12T00:15:05.446Z,100.00
2019-03-12T00:16:05.455Z,100.00
2019-03-12T00:17:05.459Z,100.00
2019-03-12T00:18:05.680Z,100.00
2019-03-12T00:19:06.197Z,100.00
2019-03-12T00:20:06.094Z,100.00
2019-03-12T00:21:06.304Z,100.00
2019-03-12T00:22:06.824Z,100.00
2019-03-12T00:23:06.579Z,100.00
2019-03-12T00:24:07.244Z,100.00
2019-03-12T00:25:07.254Z,100.00
2019-03-12T00:26:07.260Z,100.00
2019-03-12T00:27:07.265Z,100.00
2019-03-12T00:28:07.680Z,100.00
2019-03-12T00:29:08.002Z,100.00
2019-03-12T00:30:08.409Z,100.00
2019-03-12T00:31:08.828Z,100.00
2019-03-12T00:32:09.346Z,100.00
2019-03-12T00:33:09.149Z,100.00
2019-03-12T00:34:09.677Z,100.00
2019-03-12T00:35:09.295Z,100.00
2019-03-12T00:36:09.372Z,100.00
2019-03-12T00:37:09.405Z,100.00
2019-03-12T00:38:09.487Z,100.00
2019-03-12T00:39:09.913Z,100.00
2019-03-12T00:40:10.319Z,100.00
2019-03-12T00:41:10.432Z,100.00
2019-03-12T00:42:10.946Z,100.00
2019-03-12T00:43:10.850Z,100.00
2019-03-12T00:44:11.172Z,100.00
2019-03-12T00:45:11.582Z,100.00
2019-03-12T00:46:12.098Z,100.00
2019-03-12T00:47:11.904Z,100.00
2019-03-12T00:48:12.420Z,100.00
2019-03-12T00:49:12.441Z,100.00
2019-03-12T00:50:12.229Z,100.00
2019-03-12T00:51:12.746Z,100.00
2019-03-12T00:52:12.443Z,100.00
2019-03-12T00:53:12.964Z,100.00
2019-03-12T00:54:12.867Z,100.00
2019-03-12T00:55:13.295Z,100.00
2019-03-12T00:56:13.811Z,100.00
2019-03-12T00:57:13.504Z,100.00
2019-03-12T00:58:14.025Z,100.00
2019-03-12T00:59:13.821Z,100.00
2019-03-12T01:00:14.246Z,100.00
2019-03-12T01:01:14.755Z,100.00
2019-03-12T01:02:15.281Z,100.00
2019-03-12T01:03:15.077Z,100.00
2019-03-12T01:04:15.392Z,100.00
2019-03-12T01:05:15.717Z,100.00
2019-03-12T01:06:16.119Z,100.00
2019-03-12T01:07:16.547Z,100.00
2019-03-12T01:08:17.090Z,100.00
2019-03-12T01:09:17.061Z,100.00
2019-03-12T01:10:16.972Z,100.00
2019-03-12T01:11:17.221Z,100.00
2019-03-12T01:12:17.594Z,100.00
2019-03-12T01:13:18.009Z,100.00
2019-03-12T01:14:18.252Z,100.00
2019-03-12T01:15:18.748Z,100.00
2019-03-12T01:16:18.659Z,100.00
2019-03-12T01:17:19.229Z,100.00
2019-03-12T01:18:19.065Z,100.00
2019-03-12T01:19:19.360Z,100.00
2019-03-12T01:20:19.595Z,100.00
2019-03-12T01:21:19.807Z,100.00
2019-03-12T01:22:19.914Z,100.00
2019-03-12T01:23:20.020Z,100.00
2019-03-12T01:24:20.441Z,100.00
2019-03-12T01:25:20.953Z,100.00
2019-03-12T01:26:21.019Z,100.00
2019-03-12T01:27:21.502Z,100.00
2019-03-12T01:28:22.000Z,100.00
2019-03-12T01:29:22.011Z,100.00
2019-03-12T01:30:22.225Z,100.00
2019-03-12T01:31:21.916Z,100.00
2019-03-12T01:32:21.988Z,100.00
2019-03-12T01:33:22.646Z,100.00
2019-03-12T01:34:22.547Z,100.00
2019-03-12T01:35:22.590Z,100.00
2019-03-12T01:36:22.978Z,100.00
2019-03-12T01:37:23.291Z,100.00
2019-03-12T01:38:23.680Z,100.00
2019-03-12T01:39:23.915Z,100.00
2019-03-12T01:40:24.131Z,100.00
2019-03-12T01:41:24.549Z,100.00
2019-03-12T01:42:25.059Z,100.00
2019-03-12T01:43:25.077Z,100.00
2019-03-12T01:44:25.181Z,100.00
2019-03-12T01:45:25.268Z,100.00
2019-03-12T01:46:25.712Z,100.00
2019-03-12T01:47:26.115Z,100.00
2019-03-12T01:48:26.637Z,100.00
2019-03-12T01:49:26.540Z,100.00
2019-03-12T01:50:27.064Z,100.00
2019-03-12T01:51:26.766Z,100.00
2019-03-12T01:52:27.303Z,100.00
2019-03-12T01:53:26.871Z,100.00
2019-03-12T01:54:27.393Z,100.00
2019-03-12T01:55:27.806Z,100.00
2019-03-12T01:56:27.922Z,100.00
2019-03-12T01:57:28.337Z,100.00
2019-03-12T01:58:28.854Z,100.00
2019-03-12T01:59:28.553Z,100.00
2019-03-12T02:00:28.996Z,100.00
2019-03-12T02:01:29.388Z,100.00
2019-03-12T02:02:29.494Z,100.00
2019-03-12T02:03:29.908Z,100.00
2019-03-12T02:04:30.013Z,100.00
2019-03-12T02:05:30.134Z,100.00
2019-03-12T02:06:30.549Z,100.00
2019-03-12T02:07:30.959Z,100.00
2019-03-12T02:08:31.275Z,100.00
2019-03-12T02:09:31.793Z,100.00
2019-03-12T02:10:31.798Z,100.00
2019-03-12T02:11:31.506Z,100.00
2019-03-12T02:12:32.118Z,100.00
2019-03-12T02:13:32.023Z,100.00
2019-03-12T02:14:32.298Z,100.00
2019-03-12T02:15:32.751Z,100.00
2019-03-12T02:16:34.802Z,100.00
2019-03-12T02:17:32.666Z,100.00
2019-03-12T02:18:33.085Z,100.00
2019-03-12T02:19:33.597Z,100.00
2019-03-12T02:20:33.606Z,100.00
2019-03-12T02:21:33.762Z,100.00
2019-03-12T02:22:34.138Z,100.00
2019-03-12T02:23:34.237Z,100.00
2019-03-12T02:24:34.207Z,100.00
2019-03-12T02:25:34.856Z,100.00
2019-03-12T02:26:34.974Z,100.00
2019-03-12T02:27:35.180Z,100.00
2019-03-12T02:28:34.415Z,100.00
2019-03-12T02:29:35.775Z,100.00
2019-03-12T02:30:35.818Z,100.00
2019-03-12T02:31:35.729Z,100.00
2019-03-12T02:32:35.597Z,100.00
2019-03-12T02:33:35.855Z,100.00
2019-03-12T02:34:36.599Z,100.00
2019-03-12T02:35:36.878Z,100.00
2019-03-12T02:36:37.044Z,100.00
2019-03-12T02:37:36.944Z,100.00
2019-03-12T02:38:37.668Z,100.00
2019-03-12T02:39:37.480Z,100.00
2019-03-12T02:40:37.766Z,100.00
2019-03-12T02:41:38.097Z,100.00
2019-03-12T02:42:38.428Z,100.00
2019-03-12T02:43:39.490Z,100.00
2019-03-12T02:44:38.821Z,100.00
2019-03-12T02:45:39.737Z,100.00
2019-03-12T02:46:40.020Z,100.00
2019-03-12T02:47:39.822Z,100.00
2019-03-12T02:48:40.108Z,100.00
2019-03-12T02:49:40.418Z,100.00
2019-03-12T02:50:40.789Z,100.00
2019-03-12T02:51:41.059Z,100.00
2019-03-12T02:52:41.703Z,100.00
2019-03-12T02:53:42.014Z,100.00
2019-03-12T02:54:41.853Z,100.00
2019-03-12T02:55:42.387Z,100.00
2019-03-12T02:56:42.540Z,100.00
2019-03-12T02:57:42.425Z,100.00
2019-03-12T02:58:42.706Z,100.00
2019-03-12T02:59:43.037Z,100.00
2019-03-12T03:00:43.325Z,100.00
2019-03-12T03:01:43.640Z,100.00
2019-03-12T03:02:43.959Z,100.00
2019-03-12T03:03:44.276Z,100.00
2019-03-12T03:04:44.851Z,100.00
2019-03-12T03:05:44.645Z,100.00
2019-03-12T03:06:44.967Z,100.00
2019-03-12T03:07:45.489Z,100.00
2019-03-12T03:08:45.591Z,100.00
2019-03-12T03:09:45.701Z,100.00
2019-03-12T03:10:46.116Z,100.00
2019-03-12T03:11:46.746Z,100.00
2019-03-12T03:12:46.743Z,100.00
2019-03-12T03:13:47.175Z,100.00
2019-03-12T03:14:47.479Z,100.00
2019-03-12T03:15:47.786Z,100.00
2019-03-12T03:16:48.206Z,100.00
2019-03-12T03:17:48.213Z,100.00
2019-03-12T03:18:48.758Z,100.00
2019-03-12T03:19:48.732Z,100.00
2019-03-12T03:20:48.742Z,100.00
2019-03-12T03:21:48.644Z,100.00
2019-03-12T03:22:49.201Z,100.00
2019-03-12T03:23:49.485Z,100.00
2019-03-12T03:24:49.686Z,100.00
2019-03-12T03:25:49.694Z,100.00
2019-03-12T03:26:49.702Z,100.00
2019-03-12T03:27:49.975Z,100.00
2019-03-12T03:28:49.722Z,100.00
2019-03-12T03:29:50.339Z,100.00
2019-03-12T03:30:50.343Z,100.00
2019-03-12T03:31:50.190Z,100.00
2019-03-12T03:32:50.655Z,100.00
2019-03-12T03:33:51.964Z,100.00
2019-03-12T03:34:51.588Z,100.00
2019-03-12T03:35:51.348Z,100.00
2019-03-12T03:36:51.957Z,100.00
2019-03-12T03:37:51.994Z,100.00
2019-03-12T03:38:52.158Z,100.00
2019-03-12T03:39:51.987Z,100.00
2019-03-12T03:40:52.455Z,100.00
2019-03-12T03:41:52.818Z,100.00
2019-03-12T03:42:53.138Z,100.00
2019-03-12T03:43:53.472Z,100.00
2019-03-12T03:44:53.947Z,100.00
2019-03-12T03:45:54.643Z,100.00
2019-03-12T03:46:54.490Z,100.00
2019-03-12T03:47:54.801Z,100.00
2019-03-12T03:48:55.100Z,100.00
2019-03-12T03:49:55.431Z,100.00
2019-03-12T03:50:55.711Z,100.00
2019-03-12T03:51:56.017Z,100.00
2019-03-12T03:52:56.527Z,100.00
2019-03-12T03:53:56.544Z,100.00
2019-03-12T03:54:57.261Z,100.00
2019-03-12T03:55:57.879Z,100.00
2019-03-12T03:56:57.782Z,100.00
2019-03-12T03:57:58.196Z,100.00
2019-03-12T03:58:58.726Z,100.00
2019-03-12T03:59:58.619Z,100.00
2019-03-12T04:00:58.905Z,100.00
2019-03-12T04:01:59.346Z,100.00
2019-03-12T04:02:59.457Z,100.00
2019-03-12T04:03:59.890Z,100.00
2019-03-12T04:04:59.984Z,100.00
2019-03-12T04:06:00.603Z,100.00
2019-03-12T04:07:00.609Z,100.00
2019-03-12T04:08:00.488Z,100.00
2019-03-12T04:09:01.056Z,100.00
2019-03-12T04:10:00.797Z,100.00
2019-03-12T04:11:01.047Z,100.00
2019-03-12T04:12:01.474Z,100.00
2019-03-12T04:13:01.674Z,100.00
2019-03-12T04:14:02.315Z,100.00
2019-03-12T04:15:02.101Z,100.00
2019-03-12T04:16:02.720Z,100.00
2019-03-12T04:17:03.098Z,100.00
2019-03-12T04:18:03.248Z,100.00
2019-03-12T04:19:03.599Z,100.00
2019-03-12T04:20:04.073Z,100.00
2019-03-12T04:21:03.896Z,100.00
2019-03-12T04:22:04.296Z,100.00
2019-03-12T04:23:04.504Z,100.00
2019-03-12T04:24:04.818Z,100.00
2019-03-12T04:25:05.248Z,100.00
2019-03-12T04:26:05.443Z,100.00
2019-03-12T04:28:06.009Z,100.00
2019-03-12T04:29:06.699Z,100.00
2019-03-12T04:30:06.610Z,100.00
2019-03-12T04:31:06.920Z,100.00
2019-03-12T04:32:07.135Z,100.00
2019-03-12T04:33:07.885Z,100.00
2019-03-12T04:34:07.558Z,100.00
2019-03-12T04:35:07.362Z,100.00
2019-03-12T04:36:08.383Z,100.00
2019-03-12T04:37:07.949Z,100.00
2019-03-12T04:38:08.401Z,100.00
2019-03-12T04:39:09.145Z,100.00
2019-03-12T04:40:09.338Z,100.00
2019-03-12T04:41:09.444Z,100.00
2019-03-12T04:42:09.554Z,100.00
2019-03-12T04:43:09.562Z,100.00
2019-03-12T04:44:10.098Z,100.00
2019-03-12T04:45:10.267Z,100.00
2019-03-12T04:46:10.601Z,100.00
2019-03-12T04:47:10.543Z,100.00
2019-03-12T04:48:10.888Z,100.00
2019-03-12T04:49:10.929Z,100.00
2019-03-12T04:50:11.142Z,100.00
2019-03-12T04:51:11.554Z,100.00
2019-03-12T04:52:11.868Z,100.00
2019-03-12T04:53:15.269Z,100.00
2019-03-12T04:54:15.775Z,100.00
2019-03-12T04:55:13.218Z,100.00
2019-03-12T04:56:13.608Z,100.00
2019-03-12T04:57:14.268Z,100.00
2019-03-12T04:58:14.157Z,100.00
2019-03-12T04:59:14.174Z,100.00
2019-03-12T05:00:14.148Z,100.00
2019-03-12T05:01:14.423Z,100.00
2019-03-12T05:02:14.916Z,100.00
2019-03-12T05:03:15.121Z,100.00
2019-03-12T05:04:15.184Z,100.00
2019-03-12T05:05:15.496Z,100.00
2019-03-12T05:06:19.656Z,100.00
2019-03-12T05:07:15.941Z,100.00
2019-03-12T05:08:16.281Z,100.00
2019-03-12T05:09:16.797Z,100.00
2019-03-12T05:10:17.213Z,100.00
2019-03-12T05:12:16.687Z,100.00
2019-03-12T05:13:16.971Z,100.00
2019-03-12T05:14:17.965Z,100.00
2019-03-12T05:15:17.716Z,100.00
2019-03-12T05:16:20.346Z,100.00
2019-03-12T05:17:17.563Z,100.00
2019-03-12T05:18:17.921Z,100.00
2019-03-12T05:19:18.472Z,100.00
2019-03-12T05:20:18.759Z,100.00
2019-03-12T05:21:19.026Z,100.00
2019-03-12T05:22:19.436Z,100.00
2019-03-12T05:23:19.751Z,100.00
2019-03-12T05:24:19.784Z,100.00
2019-03-12T05:25:20.604Z,100.00
2019-03-12T05:26:19.980Z,100.00
2019-03-12T05:27:20.491Z,100.00
2019-03-12T05:28:20.821Z,100.00
2019-03-12T05:29:20.519Z,100.00
2019-03-12T05:30:25.509Z,100.00
2019-03-12T05:31:21.360Z,100.00
2019-03-12T05:32:22.257Z,100.00
2019-03-12T05:33:21.609Z,100.00
2019-03-12T05:34:23.214Z,100.00
2019-03-12T05:35:22.309Z,100.00
2019-03-12T05:36:22.705Z,100.00
2019-03-12T05:37:22.612Z,100.00
2019-03-12T05:38:22.612Z,100.00
2019-03-12T05:39:23.140Z,100.00
2019-03-12T05:40:22.938Z,100.00
2019-03-12T05:41:23.561Z,100.00
2019-03-12T05:42:23.456Z,100.00
2019-03-12T05:43:23.890Z,100.00
2019-03-12T05:44:24.291Z,100.00
2019-03-12T05:45:24.913Z,100.00
2019-03-12T05:46:24.824Z,100.00
2019-03-12T05:47:25.436Z,100.00
2019-03-12T05:48:25.547Z,100.00
2019-03-12T05:49:25.246Z,100.00
2019-03-12T05:50:25.752Z,100.00
2019-03-12T05:51:26.390Z,100.00
2019-03-12T05:52:26.490Z,100.00
2019-03-12T05:53:26.190Z,100.00
2019-03-12T05:54:26.713Z,100.00
2019-03-12T05:55:26.416Z,100.00
2019-03-12T05:56:26.731Z,100.00
2019-03-12T05:57:27.053Z,100.00
2019-03-12T05:58:27.464Z,100.00
2019-03-12T05:59:27.766Z,100.00
2019-03-12T06:00:28.191Z,100.00
2019-03-12T06:01:28.607Z,100.00
2019-03-12T06:02:28.929Z,100.00
2019-03-12T06:03:29.020Z,100.00
2019-03-12T06:04:29.630Z,100.00
2019-03-12T06:05:29.237Z,100.00
2019-03-12T06:06:29.559Z,100.00
2019-03-12T06:07:29.969Z,100.00
2019-03-12T06:08:30.285Z,100.00
2019-03-12T06:09:30.822Z,100.00
2019-03-12T06:10:31.216Z,100.00
2019-03-12T06:11:31.743Z,100.00
2019-03-12T06:12:31.742Z,100.00
2019-03-12T06:13:31.851Z,100.00
2019-03-12T06:14:31.861Z,100.00
2019-03-12T06:15:32.864Z,100.00
2019-03-12T06:16:32.903Z,100.00
2019-03-12T06:17:32.901Z,100.00
2019-03-12T06:18:33.316Z,100.00
2019-03-12T06:19:33.942Z,100.00
2019-03-12T06:20:33.950Z,100.00
2019-03-12T06:21:34.065Z,100.00
2019-03-12T06:22:34.273Z,100.00
2019-03-12T06:23:34.885Z,100.00
2019-03-12T06:24:34.898Z,100.00
2019-03-12T06:25:34.697Z,100.00
2019-03-12T06:26:35.221Z,100.00
2019-03-12T06:27:34.916Z,100.00
2019-03-12T06:28:35.434Z,100.00
2019-03-12T06:29:35.441Z,100.00
2019-03-12T06:30:35.656Z,100.00
2019-03-12T06:31:35.873Z,100.00
2019-03-12T06:32:35.868Z,100.00
2019-03-12T06:33:36.184Z,100.00
2019-03-12T06:34:36.902Z,100.00
2019-03-12T06:35:37.323Z,100.00
2019-03-12T06:36:37.330Z,100.00
2019-03-12T06:37:37.543Z,100.00
2019-03-12T06:38:38.260Z,100.00
2019-03-12T06:39:38.097Z,100.00
2019-03-12T06:40:38.069Z,100.00
2019-03-12T06:41:37.770Z,100.00
2019-03-12T06:42:38.402Z,100.00
2019-03-12T06:43:38.352Z,100.00
2019-03-12T06:44:38.812Z,100.00
2019-03-12T06:45:39.096Z,100.00
2019-03-12T06:46:39.649Z,100.00
2019-03-12T06:47:39.555Z,100.00
2019-03-12T06:48:40.184Z,100.00
2019-03-12T06:49:40.388Z,100.00
2019-03-12T06:50:40.704Z,100.00
2019-03-12T06:51:41.121Z,100.00
2019-03-12T06:52:41.228Z,100.00
2019-03-12T06:53:41.144Z,100.00
2019-03-12T06:54:41.750Z,100.00
2019-03-12T06:55:41.876Z,100.00
2019-03-12T06:56:41.766Z,100.00
2019-03-12T06:57:42.287Z,100.00
2019-03-12T06:58:42.909Z,100.00
2019-03-12T06:59:43.019Z,100.00
2019-03-12T07:00:43.119Z,100.00
2019-03-12T07:01:43.347Z,100.00
2019-03-12T07:02:43.959Z,100.00
2019-03-12T07:03:44.069Z,100.00
2019-03-12T07:04:44.378Z,100.00
2019-03-12T07:06:44.382Z,100.00
2019-03-12T07:07:45.951Z,100.00
2019-03-12T07:08:45.223Z,100.00
2019-03-12T07:09:45.123Z,100.00
2019-03-12T07:10:45.481Z,100.00
2019-03-12T07:11:45.247Z,100.00
2019-03-12T07:12:46.074Z,100.00
2019-03-12T07:13:45.965Z,100.00
2019-03-12T07:14:46.074Z,100.00
2019-03-12T07:15:46.180Z,100.00
2019-03-12T07:16:46.702Z,100.00
2019-03-12T07:17:46.821Z,100.00
2019-03-12T07:18:47.231Z,100.00
2019-03-12T07:19:47.350Z,100.00
2019-03-12T07:20:47.263Z,100.00
2019-03-12T07:21:47.758Z,100.00
2019-03-12T07:22:47.765Z,100.00
2019-03-12T07:23:48.491Z,100.00
2019-03-12T07:24:48.837Z,100.00
2019-03-12T07:25:50.918Z,100.00
2019-03-12T07:26:49.605Z,100.00
2019-03-12T07:28:50.931Z,100.00
2019-03-12T07:29:50.170Z,100.00
2019-03-12T07:31:50.185Z,100.00
2019-03-12T07:32:50.499Z,100.00
2019-03-12T07:33:51.224Z,100.00
2019-03-12T07:34:51.395Z,100.00
2019-03-12T07:35:51.614Z,100.00
2019-03-12T07:37:52.276Z,100.00
2019-03-12T07:38:52.377Z,100.00
2019-03-12T07:39:52.556Z,100.00
2019-03-12T07:40:52.603Z,100.00
2019-03-12T07:41:52.700Z,100.00
2019-03-12T07:42:52.820Z,100.00
2019-03-12T07:43:52.921Z,100.00
2019-03-12T07:44:53.134Z,100.00
2019-03-12T07:45:53.646Z,100.00
2019-03-12T07:46:53.966Z,100.00
2019-03-12T07:47:54.076Z,100.00
2019-03-12T07:48:54.092Z,100.00
2019-03-12T07:49:54.424Z,100.00
2019-03-12T07:50:54.714Z,100.00
2019-03-12T07:51:55.126Z,100.00
2019-03-12T07:52:55.231Z,100.00
2019-03-12T07:53:59.703Z,100.00
2019-03-12T07:54:56.273Z,100.00
2019-03-12T07:55:56.382Z,100.00
2019-03-12T07:56:56.496Z,100.00
2019-03-12T07:58:56.783Z,100.00
2019-03-12T07:59:57.224Z,100.00
2019-03-12T08:00:57.232Z,100.00
2019-03-12T08:01:57.645Z,100.00
2019-03-12T08:02:57.654Z,100.00
2019-03-12T08:03:59.258Z,100.00
2019-03-12T08:04:58.076Z,100.00
2019-03-12T08:05:58.592Z,98.62
2019-03-12T08:06:58.698Z,100.00
2019-03-12T08:07:58.910Z,99.80
2019-03-12T08:08:59.233Z,100.00
2019-03-12T08:10:01.242Z,95.68
2019-03-12T08:10:59.755Z,94.88
2019-03-12T08:12:00.070Z,95.17
2019-03-12T08:13:00.581Z,97.03
2019-03-12T08:14:00.880Z,95.94
2019-03-12T08:15:01.623Z,93.98
2019-03-12T08:16:01.635Z,91.50
2019-03-12T08:17:01.534Z,90.79
2019-03-12T08:18:02.259Z,90.16
2019-03-12T08:19:02.575Z,88.55
2019-03-12T08:20:02.885Z,87.83
2019-03-12T08:21:02.604Z,86.23
2019-03-12T08:22:03.387Z,83.68
2019-03-12T08:23:03.426Z,81.72
2019-03-12T08:24:03.582Z,77.87
2019-03-12T08:25:03.635Z,76.82
2019-03-12T08:26:03.639Z,74.18
2019-03-12T08:27:04.369Z,71.79
2019-03-12T08:28:04.473Z,72.04
2019-03-12T08:29:04.281Z,72.32
2019-03-12T08:30:04.866Z,70.54
2019-03-12T08:31:04.693Z,68.13
2019-03-12T08:32:04.808Z,69.67
2019-03-12T08:33:05.527Z,69.15
2019-03-12T08:34:05.672Z,70.02
2019-03-12T08:35:05.951Z,69.43
2019-03-12T08:36:05.965Z,68.24
2019-03-12T08:37:05.997Z,67.55
2019-03-12T08:38:06.488Z,68.42
2019-03-12T08:39:06.593Z,65.86
2019-03-12T08:40:06.811Z,64.78
2019-03-12T08:41:07.114Z,66.48
2019-03-12T08:42:07.226Z,66.24
2019-03-12T08:43:07.352Z,65.53
2019-03-12T08:44:07.542Z,65.04
2019-03-12T08:45:11.114Z,62.86
2019-03-12T08:46:08.072Z,61.38
2019-03-12T08:47:07.626Z,62.88
2019-03-12T08:48:08.210Z,61.75
2019-03-12T08:49:08.294Z,62.31
2019-03-12T08:50:08.411Z,61.61
2019-03-12T08:51:08.487Z,60.74
2019-03-12T08:52:08.928Z,61.07
2019-03-12T08:53:08.669Z,60.44
2019-03-12T08:54:09.253Z,59.71
2019-03-12T08:55:09.160Z,59.38
2019-03-12T08:56:09.368Z,59.39
2019-03-12T08:57:09.997Z,59.38
2019-03-12T08:58:10.091Z,59.10
2019-03-12T08:59:09.894Z,58.14
2019-03-12T09:00:10.458Z,57.83
2019-03-12T09:01:10.421Z,57.43
2019-03-12T09:02:11.042Z,58.30
2019-03-12T09:03:11.281Z,58.71
2019-03-12T09:04:11.258Z,58.81
2019-03-12T09:05:11.174Z,58.12
2019-03-12T09:06:11.485Z,58.71
2019-03-12T09:07:11.720Z,57.06
2019-03-12T09:08:11.944Z,57.53
2019-03-12T09:09:12.216Z,57.17
2019-03-12T09:10:12.435Z,56.81
2019-03-12T09:11:13.044Z,55.14
2019-03-12T09:12:12.740Z,56.62
2019-03-12T09:13:13.482Z,56.07
2019-03-12T09:14:13.680Z,56.98
2019-03-12T09:15:13.800Z,56.02
2019-03-12T09:16:14.104Z,55.51
2019-03-12T09:17:13.801Z,55.60
2019-03-12T09:18:14.420Z,55.81
2019-03-12T09:19:14.734Z,55.35
2019-03-12T09:20:14.959Z,55.35
2019-03-12T09:21:15.933Z,54.75
2019-03-12T09:22:19.047Z,54.83
2019-03-12T09:23:17.895Z,53.31
2019-03-12T09:24:15.974Z,51.96
2019-03-12T09:25:16.527Z,52.72
2019-03-12T09:26:16.629Z,54.63
2019-03-12T09:27:17.242Z,54.48
2019-03-12T09:28:20.519Z,54.37
2019-03-12T09:29:17.528Z,54.67
2019-03-12T09:30:17.819Z,54.63
2019-03-12T09:31:17.857Z,53.92
2019-03-12T09:32:17.994Z,53.47
2019-03-12T09:33:18.122Z,53.08
2019-03-12T09:34:18.537Z,51.96
2019-03-12T09:35:18.457Z,53.14
2019-03-12T09:36:18.543Z,51.89
2019-03-12T09:37:18.643Z,48.99
2019-03-12T09:38:18.752Z,49.49
2019-03-12T09:39:19.374Z,49.06
2019-03-12T09:40:19.275Z,49.12
2019-03-12T09:41:19.600Z,49.19
2019-03-12T09:42:19.597Z,49.74
2019-03-12T09:43:19.821Z,50.87
2019-03-12T09:44:19.918Z,51.64
2019-03-12T09:45:20.437Z,51.54
2019-03-12T09:46:20.454Z,51.21
2019-03-12T09:47:20.861Z,50.87
2019-03-12T09:48:21.071Z,51.34
2019-03-12T09:49:21.285Z,51.26
2019-03-12T09:50:21.393Z,50.72
2019-03-12T09:51:21.569Z,49.93
2019-03-12T09:52:21.816Z,50.10
2019-03-12T09:53:22.130Z,49.37
2019-03-12T09:54:22.341Z,49.65
2019-03-12T09:55:22.962Z,49.94
2019-03-12T09:56:23.179Z,49.57
2019-03-12T09:57:23.418Z,49.80
2019-03-12T09:58:23.390Z,49.21
2019-03-12T09:59:26.362Z,49.71
2019-03-12T10:00:23.610Z,48.63
2019-03-12T10:01:23.626Z,48.70
2019-03-12T10:02:23.823Z,48.51
2019-03-12T10:03:24.239Z,48.44
2019-03-12T10:04:24.309Z,48.38
2019-03-12T10:05:24.098Z,48.04
2019-03-12T10:06:24.676Z,48.08
2019-03-12T10:07:24.981Z,46.93
2019-03-12T10:08:25.091Z,46.72
2019-03-12T10:09:25.001Z,47.33
2019-03-12T10:10:25.507Z,47.15
2019-03-12T10:11:25.734Z,47.92
2019-03-12T10:12:25.832Z,47.74
2019-03-12T10:13:25.738Z,47.27
2019-03-12T10:14:26.154Z,47.57
2019-03-12T10:15:26.057Z,47.07
2019-03-12T10:16:26.685Z,48.14
2019-03-12T10:17:27.096Z,48.14
2019-03-12T10:18:27.310Z,48.17
2019-03-12T10:19:27.515Z,47.82
2019-03-12T10:20:27.737Z,47.24
2019-03-12T10:21:28.052Z,47.18
2019-03-12T10:22:28.050Z,47.03
2019-03-12T10:23:27.850Z,47.15
2019-03-12T10:24:28.873Z,46.81
2019-03-12T10:25:28.178Z,47.68
2019-03-12T10:26:28.493Z,46.67
2019-03-12T10:27:28.595Z,47.70
2019-03-12T10:28:28.805Z,47.73
2019-03-12T10:29:28.816Z,48.08
2019-03-12T10:30:28.923Z,47.80
2019-03-12T10:31:29.351Z,48.53
2019-03-12T10:32:29.241Z,48.55
2019-03-12T10:33:29.772Z,47.98
2019-03-12T10:34:30.229Z,48.14
2019-03-12T10:35:29.877Z,48.63
2019-03-12T10:36:31.133Z,49.10
2019-03-12T10:37:30.729Z,49.50
2019-03-12T10:38:30.818Z,49.44
2019-03-12T10:39:31.238Z,49.36
2019-03-12T10:40:31.139Z,48.97
2019-03-12T10:41:31.676Z,49.50
2019-03-12T10:42:31.981Z,49.26
2019-03-12T10:43:32.283Z,49.22
2019-03-12T10:44:32.393Z,49.36
2019-03-12T10:45:32.604Z,49.55
2019-03-12T10:46:32.818Z,49.72
2019-03-12T10:47:32.734Z,49.04
2019-03-12T10:48:33.237Z,49.44
2019-03-12T10:49:37.695Z,49.27
2019-03-12T10:50:33.560Z,49.84
2019-03-12T10:51:33.568Z,49.64
2019-03-12T10:52:34.079Z,49.88
2019-03-12T10:53:33.950Z,49.45
2019-03-12T10:54:34.405Z,49.03
2019-03-12T10:55:34.226Z,49.00
2019-03-12T10:56:34.624Z,48.38
2019-03-12T10:57:35.049Z,48.40
2019-03-12T10:58:35.659Z,47.95
2019-03-12T10:59:35.677Z,47.56
2019-03-12T11:00:35.710Z,47.47
2019-03-12T11:01:35.610Z,47.91
2019-03-12T11:02:35.999Z,47.75
2019-03-12T11:03:36.205Z,48.18
2019-03-12T11:04:36.617Z,47.72
2019-03-12T11:05:45.926Z,47.51
2019-03-12T11:06:36.745Z,47.44
2019-03-12T11:07:37.263Z,47.24
2019-03-12T11:08:37.058Z,47.10
2019-03-12T11:09:37.265Z,47.04
2019-03-12T11:10:37.783Z,46.95
2019-03-12T11:11:37.795Z,46.97
2019-03-12T11:12:37.399Z,46.86
2019-03-12T11:13:37.807Z,46.48
2019-03-12T11:14:38.018Z,46.02
2019-03-12T11:15:38.335Z,46.41
2019-03-12T11:16:38.849Z,46.47
2019-03-12T11:17:48.907Z,46.47
2019-03-12T11:18:39.069Z,46.16
2019-03-12T11:19:39.582Z,46.56
2019-03-12T11:20:40.105Z,46.67
2019-03-12T11:21:40.111Z,45.93
2019-03-12T11:22:40.125Z,46.11
2019-03-12T11:23:40.519Z,45.55
2019-03-12T11:24:41.054Z,46.14
2019-03-12T11:25:41.160Z,46.22
2019-03-12T11:26:41.169Z,46.33
2019-03-12T11:27:41.434Z,45.89
2019-03-12T11:28:41.997Z,46.16
2019-03-12T11:29:41.801Z,45.81
2019-03-12T11:30:42.081Z,46.15
2019-03-12T11:31:42.529Z,46.11
2019-03-12T11:32:43.059Z,45.87
2019-03-12T11:33:43.057Z,46.28
2019-03-12T11:34:43.288Z,46.72
2019-03-12T11:35:43.538Z,46.84
2019-03-12T11:36:44.018Z,46.60
2019-03-12T11:37:44.428Z,46.53
2019-03-12T11:38:45.102Z,46.50
2019-03-12T11:39:45.148Z,46.61
2019-03-12T11:40:45.465Z,46.38
2019-03-12T11:41:45.673Z,46.55
2019-03-12T11:42:45.984Z,46.82
2019-03-12T11:43:46.235Z,46.89
2019-03-12T11:44:46.333Z,47.00
2019-03-12T11:45:46.614Z,47.02
2019-03-12T11:46:46.936Z,47.10
2019-03-12T11:47:47.363Z,47.13
2019-03-12T11:48:47.978Z,46.68
2019-03-12T11:49:47.897Z,46.88
2019-03-12T11:50:48.398Z,47.01
2019-03-12T11:51:48.394Z,46.77
2019-03-12T11:52:55.118Z,46.49
2019-03-12T11:53:48.678Z,46.38
2019-03-12T11:54:49.257Z,45.57
2019-03-12T11:55:49.362Z,46.42
2019-03-12T11:56:49.842Z,46.58
2019-03-12T11:57:50.187Z,46.77
2019-03-12T11:58:50.713Z,46.88
2019-03-12T11:59:49.777Z,46.69
2019-03-12T12:00:50.313Z,46.23
2019-03-12T12:01:50.724Z,46.78
2019-03-12T12:02:59.882Z,46.90
2019-03-12T12:03:51.652Z,46.84
2019-03-12T12:04:51.758Z,46.83
2019-03-12T12:05:52.377Z,46.94
2019-03-12T12:06:52.249Z,46.96
2019-03-12T12:07:52.390Z,46.71
2019-03-12T12:08:52.917Z,47.02
2019-03-12T12:09:53.164Z,47.59
2019-03-12T12:10:53.742Z,47.46
2019-03-12T12:11:53.551Z,47.48
2019-03-12T12:12:53.965Z,47.44
2019-03-12T12:13:54.079Z,47.26
2019-03-12T12:14:54.583Z,47.15
2019-03-12T12:15:54.795Z,47.29
2019-03-12T12:16:55.416Z,47.34
2019-03-12T12:17:55.005Z,46.46
2019-03-12T12:18:55.437Z,46.44
2019-03-12T12:19:55.543Z,46.63
2019-03-12T12:20:56.061Z,46.35
2019-03-12T12:21:55.656Z,46.27
2019-03-12T12:22:56.174Z,46.34
2019-03-12T12:23:56.186Z,46.50
2019-03-12T12:24:56.288Z,46.58
2019-03-12T12:25:56.089Z,46.59
2019-03-12T12:26:56.503Z,46.40
2019-03-12T12:27:56.819Z,46.57
2019-03-12T12:28:57.247Z,46.39
2019-03-12T12:29:57.552Z,46.25
2019-03-12T12:30:57.551Z,46.84
2019-03-12T12:31:58.586Z,46.84
2019-03-12T12:32:58.388Z,46.98
2019-03-12T12:33:58.593Z,47.05
2019-03-12T12:34:58.810Z,47.12
2019-03-12T12:35:59.020Z,47.35
2019-03-12T12:36:59.133Z,47.21
2019-03-12T12:37:59.134Z,47.23
2019-03-12T12:38:59.970Z,47.46
2019-03-12T12:40:00.394Z,47.86
2019-03-12T12:41:00.695Z,47.17
2019-03-12T12:42:01.008Z,47.17
2019-03-12T12:43:01.383Z,47.27
2019-03-12T12:44:01.643Z,47.04
2019-03-12T12:45:02.055Z,47.19
2019-03-12T12:46:02.366Z,47.41
2019-03-12T12:47:02.886Z,46.96
2019-03-12T12:48:02.785Z,47.25